createdAt,value
2022-12-04T00:01:12.283Z,22.92
2022-12-04T00:03:40.608Z,21.67
2022-12-04T00:06:10.837Z,21.50
2022-12-04T00:08:39.534Z,25.30
2022-12-04T00:11:10.411Z,20.10
2022-12-04T00:13:40.203Z,25.67
2022-12-04T00:16:10.074Z,23.65
2022-12-04T00:18:38.154Z,28.30
2022-12-04T00:21:07.614Z,28.60
2022-12-04T00:23:36.384Z,22.60
2022-12-04T00:26:06.313Z,24.77
2022-12-04T00:28:36.643Z,26.50
2022-12-04T00:31:07.183Z,20.35
2022-12-04T00:33:35.771Z,20.65
2022-12-04T00:36:06.779Z,23.42
2022-12-04T00:38:35.065Z,25.25
2022-12-04T00:41:03.109Z,24.40
2022-12-04T00:43:32.793Z,19.00
2022-12-04T00:46:02.158Z,18.77
2022-12-04T00:48:31.052Z,20.83
2022-12-04T00:51:03.358Z,19.63
2022-12-04T00:53:31.485Z,21.17
2022-12-04T00:55:59.991Z,20.95
2022-12-04T00:58:28.153Z,17.85
2022-12-04T01:01:05.933Z,19.35
2022-12-04T01:03:34.847Z,19.98
2022-12-04T01:06:03.688Z,19.05
2022-12-04T01:08:32.051Z,19.83
2022-12-04T01:11:00.090Z,20.38
2022-12-04T01:13:28.310Z,19.08
2022-12-04T01:15:56.465Z,20.42
2022-12-04T01:18:25.752Z,20.05
2022-12-04T01:20:54.098Z,17.55
2022-12-04T01:23:22.287Z,21.30
2022-12-04T01:25:54.155Z,19.90
2022-12-04T01:28:22.565Z,18.35
2022-12-04T01:31:02.411Z,21.92
2022-12-04T01:33:33.254Z,16.17
2022-12-04T01:36:03.479Z,19.42
2022-12-04T01:38:31.525Z,18.20
2022-12-04T01:41:00.099Z,18.48
2022-12-04T01:43:30.526Z,20.73
2022-12-04T01:45:59.464Z,19.25
2022-12-04T01:48:32.106Z,19.10
2022-12-04T01:51:07.383Z,18.70
2022-12-04T01:53:37.854Z,17.77
2022-12-04T01:56:06.727Z,18.35
2022-12-04T01:58:39.114Z,17.77
2022-12-04T02:01:09.469Z,19.92
2022-12-04T02:03:38.814Z,19.40
2022-12-04T02:06:08.590Z,20.92
2022-12-04T02:08:37.875Z,20.38
2022-12-04T02:11:25.875Z,19.30
2022-12-04T02:14:01.282Z,19.23
2022-12-04T02:16:38.868Z,20.52
2022-12-04T02:19:32.162Z,18.30
2022-12-04T02:22:07.454Z,20.60
2022-12-04T02:24:50.436Z,19.52
2022-12-04T02:27:32.369Z,20.38
2022-12-04T02:30:05.650Z,20.92
2022-12-04T02:32:39.621Z,19.73
2022-12-04T02:35:13.944Z,21.45
2022-12-04T02:37:46.771Z,21.63
2022-12-04T02:40:22.348Z,20.23
2022-12-04T02:42:56.677Z,21.25
2022-12-04T02:45:29.909Z,20.73
2022-12-04T02:48:04.634Z,21.63
2022-12-04T02:50:36.447Z,19.38
2022-12-04T02:53:08.807Z,21.25
2022-12-04T02:55:42.973Z,21.02
2022-12-04T02:58:15.572Z,20.65
2022-12-04T03:00:48.319Z,20.85
2022-12-04T03:03:20.808Z,20.73
2022-12-04T03:05:56.783Z,22.67
2022-12-04T03:08:28.993Z,20.83
2022-12-04T03:11:01.309Z,24.48
2022-12-04T03:13:34.388Z,20.65
2022-12-04T03:16:08.946Z,23.55
2022-12-04T03:18:40.756Z,22.90
2022-12-04T03:21:14.324Z,23.08
2022-12-04T03:23:47.894Z,22.35
2022-12-04T03:26:24.975Z,21.73
2022-12-04T03:28:58.158Z,22.73
2022-12-04T03:31:34.293Z,22.90
2022-12-04T03:34:05.720Z,23.23
2022-12-04T03:36:38.538Z,21.33
2022-12-04T03:39:13.939Z,21.88
2022-12-04T03:41:52.302Z,25.08
2022-12-04T03:44:24.802Z,24.67
2022-12-04T03:46:58.713Z,22.80
2022-12-04T03:49:33.177Z,23.23
2022-12-04T03:52:06.341Z,23.05
2022-12-04T03:54:38.834Z,23.85
2022-12-04T03:57:13.959Z,21.25
2022-12-04T03:59:49.906Z,21.98
2022-12-04T04:02:26.673Z,23.25
2022-12-04T04:04:59.313Z,22.00
2022-12-04T04:07:35.636Z,24.75
2022-12-04T04:10:12.030Z,22.67
2022-12-04T04:12:44.381Z,21.50
2022-12-04T04:15:33.154Z,18.85
2022-12-04T04:18:20.765Z,21.02
2022-12-04T04:21:15.559Z,20.88
2022-12-04T04:24:04.079Z,23.38
2022-12-04T04:26:36.990Z,22.35
2022-12-04T04:29:04.909Z,22.98
2022-12-04T04:31:40.155Z,23.65
2022-12-04T04:34:17.777Z,24.90
2022-12-04T04:36:55.305Z,25.73
2022-12-04T04:39:31.665Z,22.10
2022-12-04T04:42:08.010Z,24.30
2022-12-04T04:44:45.140Z,21.80
2022-12-04T04:47:18.235Z,20.27
2022-12-04T04:49:51.090Z,23.63
2022-12-04T04:52:22.494Z,23.75
2022-12-04T04:54:50.572Z,25.63
2022-12-04T04:57:27.986Z,23.38
2022-12-04T04:59:56.581Z,22.98
2022-12-04T05:02:27.114Z,21.98
2022-12-04T05:04:56.617Z,21.88
2022-12-04T05:07:24.844Z,23.85
2022-12-04T05:09:53.033Z,24.08
2022-12-04T05:12:21.190Z,22.75
2022-12-04T05:14:49.346Z,23.85
2022-12-04T05:17:17.300Z,23.50
2022-12-04T05:19:55.211Z,23.25
2022-12-04T05:22:29.429Z,23.42
2022-12-04T05:24:57.279Z,23.15
2022-12-04T05:27:26.566Z,23.08
2022-12-04T05:29:55.390Z,22.10
2022-12-04T05:32:25.314Z,20.25
2022-12-04T05:34:55.335Z,21.00
2022-12-04T05:37:25.328Z,22.83
2022-12-04T05:39:54.459Z,24.40
2022-12-04T05:42:23.529Z,29.33
2022-12-04T05:44:52.112Z,24.38
2022-12-04T05:47:20.463Z,33.80
2022-12-04T05:49:48.693Z,32.92
2022-12-04T05:52:17.434Z,27.27
2022-12-04T05:54:47.046Z,30.55
2022-12-04T05:57:15.089Z,31.52
2022-12-04T05:59:43.410Z,31.10
2022-12-04T06:02:11.753Z,25.83
2022-12-04T06:04:39.719Z,36.33
2022-12-04T06:07:07.680Z,34.00
2022-12-04T06:09:36.051Z,41.03
2022-12-04T06:12:07.016Z,49.72
2022-12-04T06:14:39.317Z,36.50
2022-12-04T06:17:07.567Z,35.78
2022-12-04T06:19:35.911Z,40.72
2022-12-04T06:22:05.107Z,46.22
2022-12-04T06:24:33.324Z,29.48
2022-12-04T06:27:26.697Z,27.80
2022-12-04T06:29:51.095Z,21.95
2022-12-04T06:32:21.743Z,30.95
2022-12-04T06:34:52.683Z,21.48
2022-12-04T06:37:21.863Z,24.83
2022-12-04T06:39:50.378Z,23.83
2022-12-04T06:42:18.913Z,33.40
2022-12-04T06:44:46.854Z,49.33
2022-12-04T06:47:16.284Z,75.55
2022-12-04T06:49:46.118Z,79.03
2022-12-04T06:52:14.449Z,80.22
2022-12-04T06:54:42.607Z,80.50
2022-12-04T06:57:10.487Z,92.80
2022-12-04T06:59:38.842Z,93.95
2022-12-04T07:02:06.802Z,97.50
2022-12-04T07:04:36.147Z,93.10
2022-12-04T07:07:04.143Z,95.20
2022-12-04T07:09:32.143Z,95.43
2022-12-04T07:12:00.195Z,97.90
2022-12-04T07:14:28.144Z,99.50
2022-12-04T07:16:56.359Z,99.63
2022-12-04T07:19:24.465Z,87.93
2022-12-04T07:21:53.822Z,90.78
2022-12-04T07:24:22.174Z,91.55
2022-12-04T07:26:50.196Z,83.25
2022-12-04T07:29:18.132Z,86.85
2022-12-04T07:31:46.162Z,88.72
2022-12-04T07:34:14.192Z,86.95
2022-12-04T07:36:42.463Z,88.80
2022-12-04T07:39:11.781Z,132.27
2022-12-04T07:41:40.086Z,94.90
2022-12-04T07:44:08.489Z,105.32
2022-12-04T07:46:37.317Z,95.38
2022-12-04T07:49:05.494Z,83.78
2022-12-04T07:51:33.663Z,69.25
2022-12-04T07:54:04.020Z,79.85
2022-12-04T07:56:34.733Z,78.22
2022-12-04T07:59:03.253Z,81.53
2022-12-04T08:01:31.673Z,78.70
2022-12-04T08:04:03.107Z,79.75
2022-12-04T08:06:33.504Z,83.47
2022-12-04T08:09:07.767Z,82.57
2022-12-04T08:11:39.280Z,77.28
2022-12-04T08:14:08.906Z,80.13
2022-12-04T08:16:37.001Z,76.50
2022-12-04T08:19:05.579Z,68.68
2022-12-04T08:21:34.383Z,73.18
2022-12-04T08:24:03.610Z,82.07
2022-12-04T08:26:33.919Z,71.65
2022-12-04T08:29:04.655Z,72.07
2022-12-04T08:31:35.144Z,78.22
2022-12-04T08:34:06.356Z,81.03
2022-12-04T08:36:36.236Z,74.72
2022-12-04T08:39:05.275Z,76.95
2022-12-04T08:41:33.716Z,74.25
2022-12-04T08:44:03.175Z,87.03
2022-12-04T08:46:31.911Z,82.97
2022-12-04T08:49:00.086Z,95.03
2022-12-04T08:51:30.407Z,81.10
2022-12-04T08:53:59.978Z,77.78
2022-12-04T08:56:29.534Z,77.50
2022-12-04T08:58:57.945Z,70.22
2022-12-04T09:01:27.988Z,75.20
2022-12-04T09:03:56.760Z,74.78
2022-12-04T09:06:25.467Z,84.43
2022-12-04T09:08:55.471Z,82.15
2022-12-04T09:11:24.844Z,80.55
2022-12-04T09:13:53.080Z,83.07
2022-12-04T09:16:23.166Z,82.43
2022-12-04T09:18:53.335Z,73.68
2022-12-04T09:21:23.176Z,72.65
2022-12-04T09:23:52.057Z,70.32
2022-12-04T09:26:23.390Z,66.80
2022-12-04T09:28:52.187Z,71.97
2022-12-04T09:31:20.497Z,74.72
2022-12-04T09:33:48.993Z,74.50
2022-12-04T09:36:18.439Z,71.05
2022-12-04T09:38:48.055Z,72.63
2022-12-04T09:41:26.745Z,68.72
2022-12-04T09:43:59.247Z,66.78
2022-12-04T09:46:33.098Z,63.35
2022-12-04T09:49:06.686Z,64.95
2022-12-04T09:51:38.777Z,62.10
2022-12-04T09:54:15.024Z,61.75
2022-12-04T09:56:55.591Z,63.67
2022-12-04T09:59:26.553Z,61.42
2022-12-04T10:02:02.984Z,59.35
2022-12-04T10:04:33.630Z,68.22
2022-12-04T10:07:12.438Z,63.45
2022-12-04T10:09:47.365Z,68.50
2022-12-04T10:12:24.725Z,64.25
2022-12-04T10:15:04.810Z,71.63
2022-12-04T10:18:01.773Z,70.55
2022-12-04T10:20:57.923Z,68.47
2022-12-04T10:23:39.233Z,58.42
2022-12-04T10:26:16.119Z,61.17
2022-12-04T10:28:55.036Z,72.07
2022-12-04T10:31:24.641Z,67.03
2022-12-04T10:33:54.809Z,66.20
2022-12-04T10:36:29.321Z,75.72
2022-12-04T10:39:02.715Z,54.35
2022-12-04T10:41:37.140Z,36.72
2022-12-04T10:44:05.421Z,35.65
2022-12-04T10:46:36.347Z,50.17
2022-12-04T10:49:09.588Z,54.47
2022-12-04T10:51:42.225Z,51.30
2022-12-04T10:54:20.554Z,59.80
2022-12-04T10:56:54.218Z,66.25
2022-12-04T10:59:22.646Z,75.30
2022-12-04T11:01:52.262Z,66.78
2022-12-04T11:04:24.942Z,55.00
2022-12-04T11:07:02.196Z,53.83
2022-12-04T11:09:32.530Z,50.05
2022-12-04T11:12:08.748Z,62.17
2022-12-04T11:14:36.777Z,51.35
2022-12-04T11:17:07.655Z,41.15
2022-12-04T11:19:37.532Z,37.03
2022-12-04T11:22:12.648Z,44.83
2022-12-04T11:24:43.762Z,42.55
2022-12-04T11:27:21.399Z,31.55
2022-12-04T11:29:50.513Z,30.98
2022-12-04T11:32:23.241Z,30.75
2022-12-04T11:34:53.753Z,42.33
2022-12-04T11:37:26.400Z,33.38
2022-12-04T11:39:56.958Z,49.72
2022-12-04T11:42:26.744Z,41.15
2022-12-04T11:44:56.764Z,42.25
2022-12-04T11:47:26.965Z,38.22
2022-12-04T11:50:01.817Z,35.63
2022-12-04T11:52:50.125Z,42.03
2022-12-04T11:55:29.201Z,39.28
2022-12-04T11:58:15.508Z,34.53
2022-12-04T12:00:51.660Z,44.05
2022-12-04T12:03:28.781Z,39.40
2022-12-04T12:06:18.539Z,23.05
2022-12-04T12:09:04.372Z,25.90
2022-12-04T12:11:37.892Z,22.23
2022-12-04T12:14:10.872Z,26.23
2022-12-04T12:16:51.661Z,19.65
2022-12-04T12:19:52.235Z,21.98
2022-12-04T12:22:35.276Z,23.02
2022-12-04T12:25:13.030Z,20.27
2022-12-04T12:27:56.733Z,20.70
2022-12-04T12:30:27.596Z,22.35
2022-12-04T12:33:11.100Z,21.42
2022-12-04T12:35:44.493Z,19.83
2022-12-04T12:38:18.298Z,19.48
2022-12-04T12:40:52.029Z,22.05
2022-12-04T12:43:30.325Z,21.27
2022-12-04T12:46:03.402Z,23.40
2022-12-04T12:48:35.732Z,24.77
2022-12-04T12:51:29.096Z,22.20
2022-12-04T12:54:03.209Z,21.38
2022-12-04T12:56:41.317Z,21.15
2022-12-04T12:59:18.770Z,20.25
2022-12-04T13:01:55.952Z,21.35
2022-12-04T13:04:34.717Z,24.90
2022-12-04T13:07:14.340Z,19.27
2022-12-04T13:09:49.094Z,18.45
2022-12-04T13:12:19.427Z,18.20
2022-12-04T13:14:49.342Z,19.83
2022-12-04T13:17:22.316Z,18.30
2022-12-04T13:19:54.088Z,20.05
2022-12-04T13:22:31.404Z,17.50
2022-12-04T13:25:19.544Z,21.58
2022-12-04T13:27:57.514Z,19.67
2022-12-04T13:30:33.450Z,20.42
2022-12-04T13:33:18.380Z,19.52
2022-12-04T13:36:10.228Z,21.98
2022-12-04T13:38:48.101Z,19.80
2022-12-04T13:41:19.665Z,20.60
2022-12-04T13:43:49.722Z,19.90
2022-12-04T13:46:34.795Z,19.73
2022-12-04T13:49:10.984Z,20.60
2022-12-04T13:51:40.724Z,19.10
2022-12-04T13:54:31.610Z,20.20
2022-12-04T13:57:17.781Z,22.85
2022-12-04T13:59:46.586Z,21.73
2022-12-04T14:02:28.167Z,20.95
2022-12-04T14:05:00.348Z,22.20
2022-12-04T14:07:32.072Z,26.52
2022-12-04T14:10:04.900Z,23.95
2022-12-04T14:12:36.638Z,23.05
2022-12-04T14:15:08.103Z,23.83
2022-12-04T14:17:39.648Z,22.90
2022-12-04T14:20:23.090Z,21.02
2022-12-04T14:22:51.040Z,21.88
2022-12-04T14:25:34.354Z,18.17
2022-12-04T14:28:14.412Z,20.55
2022-12-04T14:30:44.417Z,21.38
2022-12-04T14:33:21.678Z,20.30
2022-12-04T14:35:52.090Z,22.27
2022-12-04T14:38:23.073Z,25.08
2022-12-04T14:40:54.342Z,29.67
2022-12-04T14:43:24.910Z,31.02
2022-12-04T14:45:59.386Z,27.90
2022-12-04T14:48:36.858Z,25.00
2022-12-04T14:51:12.955Z,25.15
2022-12-04T14:53:48.492Z,25.27
2022-12-04T14:56:27.211Z,23.77
2022-12-04T14:58:56.377Z,25.60
2022-12-04T15:01:29.462Z,25.95
2022-12-04T15:04:08.536Z,25.25
2022-12-04T15:06:36.812Z,24.02
2022-12-04T15:09:32.576Z,23.55
2022-12-04T15:12:17.747Z,26.58
2022-12-04T15:14:47.398Z,25.95
2022-12-04T15:17:17.006Z,26.20
2022-12-04T15:19:46.475Z,25.92
2022-12-04T15:22:23.625Z,27.27
2022-12-04T15:24:55.312Z,26.85
2022-12-04T15:27:32.431Z,25.45
2022-12-04T15:30:02.292Z,27.67
2022-12-04T15:32:32.570Z,29.88
2022-12-04T15:35:04.482Z,34.78
2022-12-04T15:37:33.843Z,32.65
2022-12-04T15:40:06.155Z,35.22
2022-12-04T15:42:34.419Z,38.78
2022-12-04T15:45:03.852Z,35.72
2022-12-04T15:47:34.245Z,32.58
2022-12-04T15:50:12.010Z,32.33
2022-12-04T15:52:48.859Z,31.58
2022-12-04T15:55:20.742Z,35.22
2022-12-04T15:57:54.353Z,30.08
2022-12-04T16:00:29.920Z,37.00
2022-12-04T16:02:59.258Z,47.72
2022-12-04T16:05:37.431Z,39.83
2022-12-04T16:08:25.178Z,39.85
2022-12-04T16:11:00.923Z,40.95
2022-12-04T16:13:31.578Z,48.13
2022-12-04T16:16:00.248Z,45.42
2022-12-04T16:18:29.811Z,36.55
2022-12-04T16:20:59.579Z,40.47
2022-12-04T16:23:28.087Z,69.55
2022-12-04T16:25:56.285Z,53.28
2022-12-04T16:28:24.417Z,40.58
2022-12-04T16:30:53.904Z,46.33
2022-12-04T16:33:21.943Z,37.63
2022-12-04T16:35:50.503Z,40.33
2022-12-04T16:38:19.855Z,70.13
2022-12-04T16:40:49.297Z,59.97
2022-12-04T16:43:18.312Z,47.38
2022-12-04T16:45:48.131Z,64.90
2022-12-04T16:48:16.774Z,40.45
2022-12-04T16:50:46.504Z,43.30
2022-12-04T16:53:17.712Z,34.85
2022-12-04T16:55:49.473Z,32.67
2022-12-04T16:58:18.865Z,38.28
2022-12-04T17:00:52.649Z,32.15
2022-12-04T17:03:26.195Z,33.13
2022-12-04T17:05:54.667Z,38.95
2022-12-04T17:08:23.550Z,45.63
2022-12-04T17:10:53.791Z,38.90
2022-12-04T17:13:23.166Z,35.88
2022-12-04T17:15:51.236Z,34.38
2022-12-04T17:18:21.280Z,46.45
2022-12-04T17:20:49.863Z,35.22
2022-12-04T17:23:17.956Z,30.98
2022-12-04T17:25:46.039Z,30.77
2022-12-04T17:28:15.594Z,31.00
2022-12-04T17:30:46.629Z,35.08
2022-12-04T17:33:15.394Z,35.42
2022-12-04T17:35:44.893Z,38.45
2022-12-04T17:38:12.859Z,33.65
2022-12-04T17:40:41.213Z,33.17
2022-12-04T17:43:09.662Z,32.00
2022-12-04T17:45:42.230Z,29.77
2022-12-04T17:48:10.305Z,29.83
2022-12-04T17:50:38.709Z,33.40
2022-12-04T17:53:06.971Z,34.42
2022-12-04T17:55:35.649Z,33.33
2022-12-04T17:58:03.887Z,30.50
2022-12-04T18:00:32.850Z,29.65
2022-12-04T18:03:02.590Z,35.45
2022-12-04T18:05:30.632Z,30.38
2022-12-04T18:07:58.658Z,29.40
2022-12-04T18:10:26.878Z,33.05
2022-12-04T18:12:54.861Z,30.55
2022-12-04T18:15:23.280Z,29.60
2022-12-04T18:17:51.294Z,30.67
2022-12-04T18:20:20.814Z,27.77
2022-12-04T18:22:48.847Z,32.33
2022-12-04T18:25:17.140Z,31.02
2022-12-04T18:27:45.605Z,30.52
2022-12-04T18:30:19.420Z,32.20
2022-12-04T18:32:48.120Z,28.63
2022-12-04T18:35:16.148Z,27.95
2022-12-04T18:37:45.805Z,39.75
2022-12-04T18:40:14.754Z,32.58
2022-12-04T18:42:42.667Z,36.50
2022-12-04T18:45:11.857Z,32.42
2022-12-04T18:47:40.041Z,32.17
2022-12-04T18:50:09.074Z,29.85
2022-12-04T18:52:38.548Z,29.73
2022-12-04T18:55:09.059Z,32.17
2022-12-04T18:57:36.942Z,31.17
2022-12-04T19:00:05.819Z,32.63
2022-12-04T19:02:33.976Z,37.38
2022-12-04T19:05:01.890Z,33.95
2022-12-04T19:07:30.165Z,33.72
2022-12-04T19:10:13.516Z,33.08
2022-12-04T19:12:42.996Z,28.88
2022-12-04T19:15:11.747Z,30.48
2022-12-04T19:17:42.531Z,27.83
2022-12-04T19:20:12.792Z,30.38
2022-12-04T19:22:40.938Z,32.22
2022-12-04T19:25:09.770Z,29.02
2022-12-04T19:27:37.693Z,27.15
2022-12-04T19:30:08.531Z,29.52
2022-12-04T19:32:36.453Z,25.77
2022-12-04T19:35:04.598Z,31.98
2022-12-04T19:37:33.470Z,28.13
2022-12-04T19:40:04.458Z,30.65
2022-12-04T19:42:32.552Z,28.23
2022-12-04T19:45:02.970Z,31.63
2022-12-04T19:47:35.541Z,28.75
2022-12-04T19:50:04.518Z,29.70
2022-12-04T19:52:38.040Z,25.20
2022-12-04T19:55:09.088Z,24.27
2022-12-04T19:57:41.019Z,22.85
2022-12-04T20:00:12.660Z,22.42
2022-12-04T20:02:45.144Z,24.70
2022-12-04T20:05:15.414Z,23.65
2022-12-04T20:07:43.383Z,20.70
2022-12-04T20:10:12.080Z,20.77
2022-12-04T20:12:41.326Z,21.30
2022-12-04T20:15:11.730Z,20.48
2022-12-04T20:17:47.676Z,19.38
2022-12-04T20:20:16.276Z,19.88
2022-12-04T20:22:48.469Z,17.88
2022-12-04T20:25:17.305Z,18.42
2022-12-04T20:27:48.527Z,16.77
2022-12-04T20:30:17.530Z,16.48
2022-12-04T20:32:47.223Z,18.50
2022-12-04T20:35:16.695Z,17.45
2022-12-04T20:37:45.158Z,15.55
2022-12-04T20:40:14.471Z,16.73
2022-12-04T20:42:45.180Z,17.33
2022-12-04T20:45:13.593Z,17.27
2022-12-04T20:47:42.738Z,16.58
2022-12-04T20:50:12.780Z,17.85
2022-12-04T20:52:44.497Z,16.98
2022-12-04T20:55:13.447Z,16.98
2022-12-04T20:57:41.430Z,16.05
2022-12-04T21:00:10.399Z,18.88
2022-12-04T21:02:38.468Z,16.42
2022-12-04T21:05:07.724Z,17.13
2022-12-04T21:07:40.523Z,18.25
2022-12-04T21:10:09.800Z,15.77
2022-12-04T21:12:55.511Z,16.80
2022-12-04T21:15:41.240Z,16.55
2022-12-04T21:18:10.462Z,16.45
2022-12-04T21:20:39.631Z,16.15
2022-12-04T21:23:09.490Z,15.30
2022-12-04T21:25:38.715Z,16.27
2022-12-04T21:28:07.168Z,17.58
2022-12-04T21:30:36.831Z,16.50
2022-12-04T21:33:04.828Z,17.17
2022-12-04T21:35:32.915Z,15.63
2022-12-04T21:38:01.448Z,16.73
2022-12-04T21:40:31.414Z,16.13
2022-12-04T21:42:59.638Z,16.75
2022-12-04T21:45:27.514Z,16.48
2022-12-04T21:47:55.901Z,16.77
2022-12-04T21:50:24.354Z,15.25
2022-12-04T21:52:55.811Z,14.80
2022-12-04T21:55:24.553Z,16.10
2022-12-04T21:57:53.842Z,15.82
2022-12-04T22:00:23.707Z,16.58
2022-12-04T22:02:51.868Z,17.20
2022-12-04T22:05:20.635Z,16.45
2022-12-04T22:07:48.976Z,18.08
2022-12-04T22:10:16.975Z,17.25
2022-12-04T22:12:50.328Z,17.50
2022-12-04T22:15:20.394Z,18.02
2022-12-04T22:17:48.371Z,18.45
2022-12-04T22:20:16.831Z,17.45
2022-12-04T22:22:44.912Z,19.45
2022-12-04T22:25:14.299Z,20.17
2022-12-04T22:27:42.525Z,19.10
2022-12-04T22:30:11.885Z,20.23
2022-12-04T22:32:41.749Z,18.20
2022-12-04T22:35:10.528Z,19.38
2022-12-04T22:37:44.102Z,19.83
2022-12-04T22:40:14.022Z,18.13
2022-12-04T22:42:41.939Z,20.65
2022-12-04T22:45:10.980Z,19.45
2022-12-04T22:47:39.424Z,20.50
2022-12-04T22:50:12.083Z,20.10
2022-12-04T22:52:40.273Z,19.38
2022-12-04T22:55:08.957Z,23.33
2022-12-04T22:57:36.908Z,19.75
2022-12-04T23:00:06.518Z,20.35
2022-12-04T23:02:34.420Z,22.10
2022-12-04T23:05:02.877Z,23.23
2022-12-04T23:07:32.615Z,23.17
2022-12-04T23:10:00.864Z,19.20
2022-12-04T23:12:29.799Z,22.02
2022-12-04T23:14:58.056Z,21.58
2022-12-04T23:17:26.051Z,22.42
2022-12-04T23:19:54.203Z,23.00
2022-12-04T23:22:22.302Z,21.50
2022-12-04T23:24:51.759Z,22.08
2022-12-04T23:27:19.962Z,21.50
2022-12-04T23:29:53.488Z,21.35
2022-12-04T23:32:22.163Z,20.90
2022-12-04T23:34:50.427Z,20.67
2022-12-04T23:37:18.397Z,23.10
2022-12-04T23:39:46.314Z,23.45
2022-12-04T23:42:15.715Z,22.35
2022-12-04T23:44:43.659Z,23.73
2022-12-04T23:47:11.633Z,21.80
2022-12-04T23:49:39.622Z,22.00
2022-12-04T23:52:07.555Z,23.15
2022-12-04T23:54:37.721Z,21.30
2022-12-04T23:57:05.722Z,22.33
2022-12-04T23:59:35.444Z,24.33
